Time;durP1;ratioP1;P1;durP2;ratioP2;P2;SDS_P1;SDS_P2;PMS_P1;PMS_P2;Temp;Humidity;BMP_temperature;BMP_pressure;BME280_temperature;BME280_humidity;BME280_pressure;Samples;Min_cycle;Max_cycle;Signal;HPM_P1;HPM_P2
2022/05/05 00:01:33;;;;;;;5.60;5.03;;;7.50;99.90;;;;;;4980157;28;20469;-64
2022/05/05 00:04:23;;;;;;;5.93;5.43;;;7.40;99.90;;;;;;4986717;28;20471;-64
2022/05/05 00:07:11;;;;;;;6.30;5.70;;;7.30;99.90;;;;;;4987737;28;21064;-64
2022/05/05 00:14:23;;;;;;;7.20;6.20;;;7.30;99.90;;;;;;4989637;28;21258;-63
2022/05/05 00:16:13;;;;;;;6.13;5.40;;;7.20;99.90;;;;;;4983618;28;20967;-64
2022/05/05 00:19:02;;;;;;;7.30;6.07;;;7.20;99.90;;;;;;4991410;28;21023;-64
2022/05/05 00:21:51;;;;;;;5.93;5.43;;;7.10;99.90;;;;;;4993604;28;20494;-64
2022/05/05 00:24:39;;;;;;;8.17;5.70;;;7.00;99.90;;;;;;4996075;28;20946;-65
2022/05/05 00:27:29;;;;;;;6.40;5.90;;;7.00;99.90;;;;;;4990099;28;20535;-64
2022/05/05 00:30:17;;;;;;;6.53;6.03;;;7.10;99.90;;;;;;4992939;28;20488;-65
2022/05/05 00:33:05;;;;;;;6.80;6.30;;;7.00;99.90;;;;;;4993441;28;21071;-64
2022/05/05 00:35:53;;;;;;;6.90;6.30;;;6.90;99.90;;;;;;4994961;28;21121;-65
2022/05/05 00:38:43;;;;;;;7.17;6.30;;;6.90;99.90;;;;;;4994596;28;20545;-65
2022/05/05 00:41:33;;;;;;;6.27;5.77;;;6.80;99.90;;;;;;4991923;28;20488;-65
2022/05/05 00:44:21;;;;;;;6.00;5.50;;;6.90;99.90;;;;;;4988048;28;20624;-64
2022/05/05 00:47:14;;;;;;;7.13;6.50;;;6.80;99.90;;;;;;4989740;28;20552;-65
2022/05/05 00:50:03;;;;;;;7.43;6.73;;;6.80;99.90;;;;;;4992622;28;20555;-64
2022/05/05 00:52:51;;;;;;;6.40;5.77;;;6.80;99.90;;;;;;4991037;28;20525;-65
2022/05/05 00:55:41;;;;;;;6.50;5.90;;;6.70;99.90;;;;;;4991403;28;20485;-65
2022/05/05 00:58:29;;;;;;;7.10;6.20;;;6.60;99.90;;;;;;4989703;28;21075;-65
2022/05/05 01:01:20;;;;;;;6.27;5.73;;;6.50;99.90;;;;;;4995723;28;20546;-65
2022/05/05 01:04:08;;;;;;;6.80;6.20;;;6.50;99.90;;;;;;4990199;28;20511;-64
2022/05/05 01:06:57;;;;;;;6.43;5.83;;;6.50;99.90;;;;;;4994543;28;20463;-65
2022/05/05 01:09:45;;;;;;;7.13;6.53;;;6.50;99.90;;;;;;4986717;28;20491;-64
2022/05/05 01:12:35;;;;;;;10.90;7.37;;;6.50;99.90;;;;;;4991498;28;20478;-63
2022/05/05 01:15:24;;;;;;;7.47;6.33;;;6.40;99.90;;;;;;4992069;28;20536;-63
2022/05/05 01:18:12;;;;;;;7.33;6.63;;;6.40;99.90;;;;;;4993235;28;20572;-63
2022/05/05 01:21:00;;;;;;;6.50;5.90;;;6.40;99.90;;;;;;4994152;28;20509;-64
2022/05/05 01:23:51;;;;;;;7.60;6.43;;;6.40;99.90;;;;;;4985860;28;20473;-64
2022/05/05 01:29:45;;;;;;;6.93;6.20;;;6.20;99.90;;;;;;4990665;28;20488;-63
2022/05/05 01:32:34;;;;;;;6.90;6.20;;;6.20;99.90;;;;;;4989553;28;20480;-63
2022/05/05 01:35:22;;;;;;;7.40;6.70;;;6.20;99.90;;;;;;4988336;28;20448;-63
2022/05/05 01:38:12;;;;;;;7.33;6.63;;;6.20;99.90;;;;;;4989227;28;20612;-64
2022/05/05 01:41:01;;;;;;;6.50;6.00;;;6.20;99.90;;;;;;4993299;28;20595;-66
2022/05/05 01:43:49;;;;;;;6.37;5.80;;;6.10;99.90;;;;;;4986447;28;20499;-64
2022/05/05 01:46:37;;;;;;;8.20;6.20;;;6.10;99.90;;;;;;4988435;28;20458;-64
2022/05/05 01:49:26;;;;;;;7.00;6.00;;;6.10;99.90;;;;;;4993558;28;20500;-65
2022/05/05 01:52:14;;;;;;;7.07;6.40;;;6.00;99.90;;;;;;4988780;28;20515;-65
2022/05/05 01:55:04;;;;;;;10.00;6.77;;;5.90;99.90;;;;;;4987353;28;20543;-65
2022/05/05 01:57:53;;;;;;;7.10;6.40;;;6.00;99.90;;;;;;4992573;28;20544;-65
2022/05/05 02:00:42;;;;;;;8.70;6.83;;;6.00;99.90;;;;;;4990507;28;20554;-65
2022/05/05 02:03:30;;;;;;;10.43;6.67;;;5.90;99.90;;;;;;4990498;28;21001;-65
2022/05/05 02:06:18;;;;;;;8.20;7.40;;;5.80;99.90;;;;;;4990878;28;20784;-65
2022/05/05 02:09:06;;;;;;;7.33;6.63;;;5.80;99.90;;;;;;4992167;28;20576;-65
2022/05/05 02:11:54;;;;;;;7.30;6.60;;;5.80;99.90;;;;;;4993562;28;20479;-65
2022/05/05 02:14:44;;;;;;;7.87;7.17;;;5.70;99.90;;;;;;4989780;28;20545;-65
2022/05/05 02:17:35;;;;;;;9.77;7.70;;;5.70;99.90;;;;;;4995217;28;20453;-64
2022/05/05 02:20:23;;;;;;;8.10;7.30;;;5.70;99.90;;;;;;4990200;28;20448;-65
2022/05/05 02:23:12;;;;;;;8.37;7.57;;;5.60;99.90;;;;;;4991382;28;20493;-65
2022/05/05 02:26:00;;;;;;;10.10;8.20;;;5.50;99.90;;;;;;4987182;28;20496;-65
2022/05/05 02:28:49;;;;;;;7.83;7.10;;;5.50;99.90;;;;;;4991916;28;20484;-65
2022/05/05 02:31:39;;;;;;;7.57;6.80;;;5.50;99.90;;;;;;4988876;28;20458;-65
2022/05/05 02:34:27;;;;;;;9.27;7.70;;;5.50;99.90;;;;;;4993911;28;20465;-65
2022/05/05 02:40:21;;;;;;;10.20;7.67;;;5.50;99.90;;;;;;4989590;28;20453;-65
2022/05/05 02:43:09;;;;;;;9.13;8.00;;;5.40;99.90;;;;;;4995554;28;20512;-65
2022/05/05 02:45:57;;;;;;;9.77;8.73;;;5.40;99.90;;;;;;4982597;28;21133;-65
2022/05/05 02:48:47;;;;;;;8.37;7.50;;;5.30;99.90;;;;;;4990240;28;20472;-66
2022/05/05 02:51:35;;;;;;;8.80;7.90;;;5.30;99.90;;;;;;4986458;28;20547;-65
2022/05/05 02:57:25;;;;;;;8.73;7.80;;;5.30;99.90;;;;;;4985163;28;20563;-66
2022/05/05 03:00:14;;;;;;;8.50;7.63;;;5.20;99.90;;;;;;4984492;28;20448;-65
2022/05/05 03:03:06;;;;;;;8.00;7.20;;;5.20;99.90;;;;;;4988091;28;20486;-65
2022/05/05 03:05:55;;;;;;;8.53;7.73;;;5.20;99.90;;;;;;4991977;28;20487;-65
2022/05/05 03:08:44;;;;;;;8.80;8.00;;;5.10;99.90;;;;;;4989344;28;21125;-66
2022/05/05 03:11:33;;;;;;;8.70;7.83;;;5.10;99.90;;;;;;4993110;28;20580;-65
2022/05/05 03:14:21;;;;;;;12.13;8.57;;;5.00;99.90;;;;;;4985745;28;21572;-66
2022/05/05 03:17:09;;;;;;;8.87;7.97;;;5.00;99.90;;;;;;4988645;28;20530;-65
2022/05/05 03:19:57;;;;;;;8.23;7.43;;;5.10;99.90;;;;;;4991737;28;20527;-65
2022/05/05 03:22:47;;;;;;;9.43;8.47;;;5.00;99.90;;;;;;4989394;28;20477;-66
2022/05/05 03:25:35;;;;;;;10.60;8.17;;;5.00;99.90;;;;;;4989745;28;21209;-65
2022/05/05 03:28:23;;;;;;;10.90;8.10;;;5.00;99.90;;;;;;4984276;28;21122;-65
2022/05/05 03:31:11;;;;;;;9.50;8.17;;;5.00;99.90;;;;;;4990911;28;20489;-65
2022/05/05 03:33:59;;;;;;;8.93;8.03;;;4.90;99.90;;;;;;4986320;28;20512;-66
2022/05/05 03:36:48;;;;;;;9.80;8.60;;;4.90;99.90;;;;;;4992066;28;20575;-66
2022/05/05 03:39:38;;;;;;;9.87;8.40;;;4.80;99.90;;;;;;4987494;28;20524;-66
2022/05/05 03:42:26;;;;;;;9.10;8.20;;;4.80;99.90;;;;;;4990151;28;20476;-66
2022/05/05 03:45:15;;;;;;;9.93;8.13;;;4.80;99.90;;;;;;4990565;28;20461;-65
2022/05/05 03:48:03;;;;;;;9.03;8.13;;;4.80;99.90;;;;;;4997206;28;20473;-65
2022/05/05 03:50:51;;;;;;;9.93;8.90;;;4.80;99.90;;;;;;4990702;28;20485;-66
2022/05/05 03:53:39;;;;;;;9.50;8.43;;;4.80;99.90;;;;;;4988781;28;20513;-65
2022/05/05 03:56:29;;;;;;;8.73;7.90;;;4.80;99.90;;;;;;4996441;28;21027;-66
2022/05/05 03:59:17;;;;;;;11.53;9.00;;;4.80;99.90;;;;;;4988857;28;20485;-66
2022/05/05 04:02:05;;;;;;;9.53;8.53;;;4.80;99.90;;;;;;4995251;28;20551;-66
2022/05/05 04:04:54;;;;;;;9.90;8.43;;;4.80;99.90;;;;;;4994058;28;20534;-66
2022/05/05 04:07:42;;;;;;;12.53;8.17;;;4.80;99.90;;;;;;4992114;28;21068;-66
2022/05/05 04:10:31;;;;;;;9.20;8.30;;;4.80;99.90;;;;;;4988072;28;20457;-66
2022/05/05 04:13:20;;;;;;;8.90;8.00;;;4.70;99.90;;;;;;4992990;28;20568;-66
2022/05/05 04:16:10;;;;;;;9.17;8.20;;;4.80;99.90;;;;;;4994915;28;20457;-66
2022/05/05 04:18:59;;;;;;;10.10;8.63;;;4.80;99.90;;;;;;4984360;28;21065;-66
2022/05/05 04:21:47;;;;;;;9.40;8.50;;;4.80;99.90;;;;;;4997319;28;20538;-66
2022/05/05 04:24:35;;;;;;;13.17;9.10;;;4.80;99.90;;;;;;4993682;28;20464;-66
2022/05/05 04:27:23;;;;;;;9.93;8.33;;;4.80;99.90;;;;;;4987218;28;20604;-66
2022/05/05 04:30:16;;;;;;;8.60;7.80;;;4.90;99.90;;;;;;4993417;28;20982;-66
2022/05/05 04:33:04;;;;;;;10.10;9.00;;;4.90;99.90;;;;;;4993170;28;20626;-66
2022/05/05 04:35:52;;;;;;;9.40;8.33;;;4.90;99.90;;;;;;4994162;28;20532;-67
2022/05/05 04:38:41;;;;;;;14.80;9.47;;;5.00;99.90;;;;;;4988520;28;20512;-66
2022/05/05 04:41:29;;;;;;;11.83;9.93;;;5.00;99.90;;;;;;4983679;28;20465;-67
2022/05/05 04:44:17;;;;;;;10.07;8.90;;;5.10;99.90;;;;;;4991506;28;20888;-66
2022/05/05 04:47:07;;;;;;;10.07;9.03;;;5.10;99.90;;;;;;4982876;28;20825;-66
2022/05/05 04:49:56;;;;;;;9.43;8.47;;;5.20;99.90;;;;;;4983426;28;20489;-67
2022/05/05 04:52:45;;;;;;;9.10;8.20;;;5.20;99.90;;;;;;4985459;28;20860;-66
2022/05/05 04:55:33;;;;;;;10.33;8.40;;;5.30;99.90;;;;;;4986408;28;20547;-66
2022/05/05 04:58:21;;;;;;;9.43;8.43;;;5.30;99.90;;;;;;4985394;28;20480;-67
2022/05/05 05:01:09;;;;;;;8.90;8.03;;;5.40;99.90;;;;;;4981834;28;20456;-66
2022/05/05 05:03:59;;;;;;;10.30;8.87;;;5.40;99.90;;;;;;4982777;28;21145;-64
2022/05/05 05:06:47;;;;;;;9.17;8.30;;;5.50;99.90;;;;;;4989339;28;20485;-65
2022/05/05 05:09:36;;;;;;;9.83;8.03;;;5.50;99.90;;;;;;4986665;28;20960;-65
2022/05/05 05:12:24;;;;;;;11.30;9.30;;;5.60;99.90;;;;;;4978929;28;20503;-64
2022/05/05 05:15:12;;;;;;;10.20;9.20;;;5.60;99.90;;;;;;4982285;28;20965;-67
2022/05/05 05:18:00;;;;;;;9.17;8.27;;;5.70;99.90;;;;;;4991392;28;20997;-65
2022/05/05 05:20:50;;;;;;;9.50;8.50;;;5.70;99.90;;;;;;4983209;28;20458;-64
2022/05/05 05:23:39;;;;;;;10.17;8.30;;;5.80;99.90;;;;;;4984946;28;20505;-66
2022/05/05 05:26:27;;;;;;;12.90;10.57;;;5.80;99.90;;;;;;4982602;28;21511;-66
2022/05/05 05:29:15;;;;;;;9.60;8.20;;;5.90;99.90;;;;;;4972117;28;20570;-66
2022/05/05 05:32:04;;;;;;;8.80;7.90;;;5.90;99.90;;;;;;4983380;28;20500;-66
2022/05/05 05:34:52;;;;;;;9.00;8.00;;;5.90;99.90;;;;;;4991573;28;20878;-66
2022/05/05 05:37:42;;;;;;;9.40;8.50;;;6.00;99.90;;;;;;4996390;28;20457;-66
2022/05/05 05:40:33;;;;;;;11.03;8.00;;;6.10;99.90;;;;;;4990824;28;20950;-66
2022/05/05 05:43:21;;;;;;;9.60;8.23;;;6.10;99.90;;;;;;4991232;28;20742;-66
2022/05/05 05:46:09;;;;;;;8.27;7.53;;;6.20;99.90;;;;;;4993423;28;20551;-66
2022/05/05 05:48:58;;;;;;;9.03;7.97;;;6.30;99.90;;;;;;4992931;28;20862;-66
2022/05/05 05:51:52;;;;;;;7.57;6.80;;;6.40;99.90;;;;;;4996872;28;20465;-64
2022/05/05 05:54:41;;;;;;;7.70;6.70;;;6.40;99.90;;;;;;4996173;28;20485;-66
2022/05/05 05:57:36;;;;;;;8.03;6.80;;;6.50;99.90;;;;;;4995058;28;20449;-63
2022/05/05 06:00:24;;;;;;;8.53;7.73;;;6.60;99.90;;;;;;4996260;28;21437;-65
2022/05/05 06:06:18;;;;;;;6.40;5.80;;;6.80;99.90;;;;;;4998670;28;20456;-64
2022/05/05 06:09:06;;;;;;;6.10;5.50;;;6.90;99.90;;;;;;4998221;28;20562;-64
2022/05/05 06:11:56;;;;;;;7.00;6.30;;;6.90;99.90;;;;;;4996375;28;20556;-64
2022/05/05 06:14:44;;;;;;;6.33;5.60;;;7.00;99.90;;;;;;4996267;28;20461;-64
2022/05/05 06:17:34;;;;;;;6.73;5.67;;;7.10;99.90;;;;;;4996606;28;20580;-64
2022/05/05 06:20:22;;;;;;;5.27;4.77;;;7.20;99.90;;;;;;4997585;28;20473;-64
2022/05/05 06:23:10;;;;;;;8.03;5.07;;;7.30;99.90;;;;;;5000392;28;20574;-64
2022/05/05 06:25:59;;;;;;;5.37;4.73;;;7.40;99.90;;;;;;4996066;28;21043;-64
2022/05/05 06:28:48;;;;;;;6.90;4.80;;;7.50;99.90;;;;;;4996825;28;20505;-64
2022/05/05 06:31:37;;;;;;;4.83;4.43;;;7.60;99.90;;;;;;4996202;28;20457;-64
2022/05/05 06:34:25;;;;;;;4.10;3.70;;;7.70;99.90;;;;;;4996170;28;20453;-64
2022/05/05 06:37:13;;;;;;;5.37;3.57;;;7.70;99.90;;;;;;5000168;28;21057;-64
2022/05/05 06:40:01;;;;;;;5.20;3.93;;;7.80;99.90;;;;;;4998656;28;20624;-64
2022/05/05 06:42:49;;;;;;;4.43;3.70;;;7.90;99.90;;;;;;4996309;28;20521;-65
2022/05/05 06:45:39;;;;;;;5.77;3.60;;;8.00;99.90;;;;;;4995347;28;20642;-64
2022/05/05 06:48:28;;;;;;;3.50;3.20;;;8.10;99.90;;;;;;4995286;28;20487;-65
2022/05/05 06:51:16;;;;;;;3.50;3.17;;;8.20;99.90;;;;;;4999807;28;20535;-65
2022/05/05 06:54:04;;;;;;;5.30;3.00;;;8.30;99.90;;;;;;4996979;28;20523;-65
2022/05/05 06:56:52;;;;;;;3.97;3.30;;;8.30;99.90;;;;;;4999355;28;20469;-65
2022/05/05 06:59:41;;;;;;;3.80;3.40;;;8.40;99.90;;;;;;4998255;28;20554;-65
2022/05/05 07:02:30;;;;;;;5.17;3.43;;;8.40;99.90;;;;;;4993342;28;20491;-65
2022/05/05 07:05:24;;;;;;;4.33;3.03;;;8.50;99.90;;;;;;4998076;28;20491;-65
2022/05/05 07:08:12;;;;;;;5.63;3.70;;;8.60;99.90;;;;;;4993944;28;20523;-66
2022/05/05 07:11:01;;;;;;;5.70;3.77;;;8.60;99.90;;;;;;4999749;28;20539;-66
2022/05/05 07:13:49;;;;;;;5.70;3.50;;;8.70;99.90;;;;;;4996370;28;20486;-65
2022/05/05 07:16:37;;;;;;;3.37;3.07;;;8.70;99.90;;;;;;4995399;28;20547;-65
2022/05/05 07:19:27;;;;;;;3.53;3.23;;;8.80;99.90;;;;;;4997941;28;20863;-66
2022/05/05 07:22:15;;;;;;;6.50;3.57;;;8.90;99.90;;;;;;4991609;28;21123;-65
2022/05/05 07:25:04;;;;;;;4.87;3.40;;;8.90;99.90;;;;;;4995409;28;20623;-66
2022/05/05 07:27:52;;;;;;;3.20;2.90;;;9.00;99.90;;;;;;4994074;28;20652;-66
2022/05/05 07:30:40;;;;;;;4.57;3.00;;;9.00;99.90;;;;;;4997785;28;20926;-66
2022/05/05 07:33:28;;;;;;;5.63;3.53;;;9.10;99.90;;;;;;4991770;28;20508;-66
2022/05/05 07:36:18;;;;;;;3.13;2.73;;;9.20;99.90;;;;;;4995950;28;20526;-66
2022/05/05 07:39:06;;;;;;;3.73;2.53;;;9.20;99.90;;;;;;4996727;28;20484;-66
2022/05/05 07:41:54;;;;;;;5.27;2.87;;;9.30;99.90;;;;;;4992464;28;21000;-66
2022/05/05 07:44:43;;;;;;;5.80;3.20;;;9.40;99.90;;;;;;4998022;28;20480;-66
2022/05/05 07:47:31;;;;;;;3.33;3.03;;;9.50;99.90;;;;;;4992619;28;20511;-67
2022/05/05 07:50:19;;;;;;;4.10;2.63;;;9.60;99.90;;;;;;4998609;28;20441;-66
2022/05/05 07:53:08;;;;;;;5.53;3.40;;;9.70;99.90;;;;;;4988695;28;20492;-66
2022/05/05 07:55:57;;;;;;;4.87;3.07;;;9.80;99.90;;;;;;4987803;28;20465;-66
2022/05/05 07:58:45;;;;;;;4.07;3.13;;;9.90;99.90;;;;;;4996980;28;20510;-66
2022/05/05 08:01:33;;;;;;;3.47;3.17;;;9.90;99.90;;;;;;4993896;28;20608;-66
2022/05/05 08:04:21;;;;;;;6.13;3.50;;;10.00;99.90;;;;;;4996558;28;20453;-67
2022/05/05 08:07:10;;;;;;;3.43;3.00;;;10.00;99.90;;;;;;4996761;28;20453;-66
2022/05/05 08:10:00;;;;;;;3.43;3.13;;;10.10;99.90;;;;;;4995557;28;21029;-67
2022/05/05 08:12:49;;;;;;;3.53;3.10;;;10.10;99.90;;;;;;4997215;28;20484;-66
2022/05/05 08:15:37;;;;;;;5.43;3.20;;;10.20;99.90;;;;;;4995576;28;20537;-66
2022/05/05 08:18:26;;;;;;;4.53;3.10;;;10.30;99.90;;;;;;4996764;28;20551;-66
2022/05/05 08:21:14;;;;;;;3.83;3.07;;;10.30;99.90;;;;;;4996995;28;20499;-67
2022/05/05 08:30:23;;;;;;;8.53;3.30;;;10.50;99.90;;;;;;4996206;28;20531;-66
2022/05/05 08:33:11;;;;;;;3.83;3.37;;;10.60;99.90;;;;;;4992279;28;20570;-66
2022/05/05 08:36:00;;;;;;;3.40;3.10;;;10.60;99.90;;;;;;4998048;28;20448;-66
2022/05/05 08:38:49;;;;;;;3.77;3.43;;;10.70;99.90;;;;;;4997178;28;20567;-67
2022/05/05 08:41:39;;;;;;;4.10;3.17;;;10.70;99.90;;;;;;4995516;28;20866;-67
2022/05/05 08:44:29;;;;;;;4.60;3.20;;;10.90;99.90;;;;;;4993752;28;21116;-66
2022/05/05 08:47:18;;;;;;;3.83;3.50;;;10.90;99.90;;;;;;4995234;28;20468;-66
2022/05/05 08:50:09;;;;;;;3.87;3.50;;;11.00;99.90;;;;;;4996487;28;20980;-67
2022/05/05 08:52:58;;;;;;;3.23;2.93;;;11.00;99.90;;;;;;4992949;28;20472;-67
2022/05/05 08:55:46;;;;;;;4.57;3.63;;;11.10;99.90;;;;;;4995051;28;20492;-67
2022/05/05 08:58:35;;;;;;;3.03;2.60;;;11.20;99.90;;;;;;4994415;28;20551;-65
2022/05/05 09:01:26;;;;;;;5.93;2.90;;;11.30;99.90;;;;;;4998115;28;20460;-65
2022/05/05 09:04:14;;;;;;;4.37;3.50;;;11.30;99.90;;;;;;4992611;28;20485;-66
2022/05/05 09:07:03;;;;;;;3.20;2.90;;;11.40;99.90;;;;;;5001516;28;20464;-65
2022/05/05 09:09:51;;;;;;;5.50;2.90;;;11.50;99.90;;;;;;4998416;28;20477;-66
2022/05/05 09:12:40;;;;;;;4.20;2.67;;;11.60;99.90;;;;;;5000530;28;20894;-66
2022/05/05 09:15:32;;;;;;;5.07;3.00;;;11.60;99.90;;;;;;4996150;28;20573;-65
2022/05/05 09:18:25;;;;;;;3.17;2.90;;;11.70;99.90;;;;;;4998475;28;21541;-66
2022/05/05 09:21:15;;;;;;;3.27;2.97;;;11.80;99.90;;;;;;5002155;28;20496;-66
2022/05/05 09:27:17;;;;;;;4.67;2.90;;;11.90;99.90;;;;;;5000892;28;20542;-66
2022/05/05 09:30:10;;;;;;;3.83;3.20;;;12.00;99.90;;;;;;4999735;28;20627;-67
2022/05/05 09:32:58;;;;;;;3.37;3.07;;;12.10;99.90;;;;;;5001846;28;20481;-66
2022/05/05 09:35:56;;;;;;;4.37;3.10;;;12.10;99.90;;;;;;5003415;28;20548;-66
2022/05/05 09:38:50;;;;;;;3.70;2.83;;;12.20;99.90;;;;;;5000281;28;20492;-66
2022/05/05 09:41:44;;;;;;;3.10;2.80;;;12.20;99.90;;;;;;5000718;28;20456;-66
2022/05/05 09:44:44;;;;;;;4.93;2.97;;;12.30;99.90;;;;;;5003405;28;20886;-66
2022/05/05 09:47:32;;;;;;;4.20;2.70;;;12.40;99.90;;;;;;4999788;28;20934;-66
2022/05/05 09:50:21;;;;;;;4.20;2.53;;;12.50;99.90;;;;;;5002641;28;20508;-65
2022/05/05 09:59:30;;;;;;;4.00;3.60;;;12.80;99.90;;;;;;5000518;28;20566;-65
2022/05/05 10:05:33;;;;;;;3.97;3.20;;;12.90;99.90;;;;;;5000759;28;20466;-66
2022/05/05 10:08:29;;;;;;;3.83;3.40;;;13.00;99.90;;;;;;5000227;28;20571;-67
2022/05/05 10:11:19;;;;;;;3.57;2.77;;;13.00;99.90;;;;;;4999786;28;20603;-66
2022/05/05 10:14:09;;;;;;;5.00;3.30;;;13.10;99.90;;;;;;4998044;28;20481;-66
2022/05/05 10:16:58;;;;;;;8.13;3.73;;;13.20;99.90;;;;;;5000475;28;20957;-66
2022/05/05 10:19:46;;;;;;;5.83;3.57;;;13.20;99.90;;;;;;4999044;28;20950;-66
2022/05/05 10:22:39;;;;;;;3.77;3.40;;;13.30;99.90;;;;;;4995327;28;20472;-66
2022/05/05 10:25:32;;;;;;;4.30;3.70;;;13.30;99.90;;;;;;4996121;28;20473;-66
2022/05/05 10:28:41;;;;;;;5.20;3.33;;;13.30;99.90;;;;;;5000183;28;20477;-66
2022/05/05 10:31:46;;;;;;;6.10;3.90;;;13.30;99.90;;;;;;4988819;28;20469;-66
2022/05/05 10:34:34;;;;;;;4.47;3.53;;;13.40;99.90;;;;;;5000771;28;20480;-66
2022/05/05 10:37:34;;;;;;;3.17;2.97;;;13.50;99.90;;;;;;4996654;28;20974;-66
2022/05/05 10:40:23;;;;;;;6.23;3.20;;;13.60;99.90;;;;;;4996454;28;20535;-66
2022/05/05 10:43:13;;;;;;;4.13;3.70;;;13.60;99.90;;;;;;4998017;28;20479;-66
2022/05/05 10:46:01;;;;;;;5.50;3.17;;;13.70;99.90;;;;;;4995190;28;20460;-66
2022/05/05 10:48:49;;;;;;;4.33;3.87;;;13.90;99.90;;;;;;4999309;28;20586;-67
2022/05/05 10:52:12;;;;;;;3.90;3.60;;;14.00;99.90;;;;;;4995841;28;20544;-66
2022/05/05 10:55:23;;;;;;;5.00;3.13;;;14.00;99.90;;;;;;4996995;28;20539;-67
2022/05/05 10:58:59;;;;;;;4.03;3.63;;;14.20;99.90;;;;;;4996609;28;20480;-66
2022/05/05 11:01:59;;;;;;;4.13;3.33;;;14.40;99.90;;;;;;4996394;28;20460;-67
2022/05/05 11:04:49;;;;;;;5.10;3.70;;;14.40;99.90;;;;;;4998000;28;20454;-66
2022/05/05 11:07:37;;;;;;;4.87;3.10;;;14.60;99.90;;;;;;4999035;28;20476;-66
2022/05/05 11:10:46;;;;;;;2.97;2.70;;;14.70;99.90;;;;;;4997837;28;21016;-66
2022/05/05 11:13:35;;;;;;;3.37;2.60;;;14.80;99.90;;;;;;4986645;28;20575;-66
2022/05/05 11:22:51;;;;;;;3.90;3.60;;;15.30;99.90;;;;;;4986271;28;20472;-67
2022/05/05 11:25:42;;;;;;;3.37;3.07;;;15.30;99.90;;;;;;4981417;28;21544;-67
2022/05/05 11:28:31;;;;;;;3.30;3.10;;;15.40;99.90;;;;;;4995345;28;20465;-67
2022/05/05 11:31:20;;;;;;;5.23;4.03;;;15.60;99.90;;;;;;4985792;28;20448;-67
2022/05/05 11:34:11;;;;;;;5.93;3.90;;;15.70;99.90;;;;;;4994510;28;20488;-67
2022/05/05 11:37:00;;;;;;;3.70;3.33;;;15.90;99.90;;;;;;4998323;28;20542;-67
2022/05/05 11:39:49;;;;;;;3.63;3.33;;;16.00;99.90;;;;;;4985010;28;20501;-67
2022/05/05 11:44:14;;;;;;;4.27;3.50;;;16.10;99.90;;;;;;4990844;28;20489;-67
2022/05/05 11:45:44;;;;;;;4.83;3.07;;;16.10;99.90;;;;;;4986516;28;20456;-68
2022/05/05 11:48:33;;;;;;;3.83;3.50;;;16.20;99.90;;;;;;4994080;28;20524;-67
2022/05/05 11:51:30;;;;;;;4.10;3.33;;;16.40;99.90;;;;;;4990893;28;20980;-67
2022/05/05 11:54:26;;;;;;;2.93;2.63;;;16.60;99.90;;;;;;4994446;28;20516;-68
2022/05/05 11:57:31;;;;;;;3.40;3.10;;;16.80;99.90;;;;;;4998014;28;20453;-68
2022/05/05 12:03:26;;;;;;;5.10;3.40;;;17.10;99.90;;;;;;4990089;28;20512;-67
2022/05/05 12:06:15;;;;;;;3.50;3.20;;;17.20;99.90;;;;;;4989001;28;20552;-67
2022/05/05 12:09:07;;;;;;;4.90;4.40;;;17.30;99.90;;;;;;4988687;28;20523;-68
2022/05/05 12:11:55;;;;;;;6.27;4.00;;;17.40;99.90;;;;;;4991855;28;20515;-67
2022/05/05 12:14:45;;;;;;;4.50;3.63;;;17.50;99.90;;;;;;4997471;28;20485;-67
2022/05/05 12:17:39;;;;;;;4.50;4.10;;;17.60;99.90;;;;;;4981726;28;20531;-67
2022/05/05 12:20:30;;;;;;;4.17;3.77;;;17.80;99.90;;;;;;4987936;28;20457;-67
2022/05/05 12:23:23;;;;;;;4.10;3.80;;;17.80;99.90;;;;;;4991743;28;20532;-66
2022/05/05 12:26:13;;;;;;;4.13;3.73;;;17.90;99.90;;;;;;4995307;28;21127;-67
2022/05/05 12:29:01;;;;;;;3.63;3.33;;;18.00;99.90;;;;;;4986864;28;20982;-68
2022/05/05 12:31:55;;;;;;;3.73;3.30;;;18.20;99.90;;;;;;4988025;28;20999;-67
2022/05/05 12:35:03;;;;;;;4.23;3.40;;;18.20;99.90;;;;;;4993905;28;20972;-67
2022/05/05 12:37:56;;;;;;;7.30;4.20;;;18.40;99.90;;;;;;4995925;28;20461;-67
2022/05/05 12:40:46;;;;;;;4.20;3.80;;;18.50;99.90;;;;;;4988100;28;20481;-67
2022/05/05 12:43:36;;;;;;;4.40;3.37;;;18.50;99.90;;;;;;4990617;28;21083;-68
2022/05/05 12:46:24;;;;;;;4.13;3.53;;;18.60;99.90;;;;;;4994101;28;20491;-67
2022/05/05 12:49:13;;;;;;;3.47;3.10;;;18.70;99.90;;;;;;4991460;28;20861;-67
2022/05/05 12:52:01;;;;;;;4.80;3.73;;;18.70;99.90;;;;;;4986793;28;20624;-68
2022/05/05 13:01:02;;;;;;;5.53;4.97;;;19.20;99.90;;;;;;4991918;28;20458;-67
2022/05/05 13:04:09;;;;;;;4.70;4.33;;;19.30;99.90;;;;;;4988006;28;20492;-67
2022/05/05 13:06:57;;;;;;;5.37;4.87;;;19.50;99.90;;;;;;4989748;28;20461;-67
2022/05/05 13:09:45;;;;;;;4.87;4.27;;;19.50;99.90;;;;;;4991434;28;21144;-68
2022/05/05 13:12:33;;;;;;;4.67;4.27;;;19.40;99.90;;;;;;4986718;28;20592;-68
2022/05/05 13:15:21;;;;;;;4.90;4.10;;;19.30;99.90;;;;;;4982272;28;20481;-67
2022/05/05 13:18:11;;;;;;;4.27;3.97;;;19.20;99.90;;;;;;4994744;28;20477;-68
2022/05/05 13:20:59;;;;;;;3.90;3.47;;;19.20;99.90;;;;;;4992379;28;20492;-68
2022/05/05 13:23:47;;;;;;;4.10;3.70;;;19.20;99.90;;;;;;4983146;28;20480;-67
2022/05/05 13:26:37;;;;;;;4.73;4.33;;;19.30;99.90;;;;;;4989636;28;20521;-67
2022/05/05 13:29:25;;;;;;;5.20;4.80;;;19.20;99.90;;;;;;4983234;28;20485;-67
2022/05/05 13:32:14;;;;;;;5.50;4.73;;;19.10;99.90;;;;;;4978648;28;20564;-67
2022/05/05 13:35:04;;;;;;;5.63;5.13;;;19.20;99.90;;;;;;4993544;28;20864;-67
2022/05/05 13:37:53;;;;;;;4.97;4.43;;;19.20;99.90;;;;;;4978379;28;20472;-67
2022/05/05 13:40:41;;;;;;;6.53;5.30;;;19.40;99.90;;;;;;4987289;28;20457;-67
2022/05/05 13:43:29;;;;;;;6.40;5.20;;;19.40;99.90;;;;;;4994545;28;20571;-67
2022/05/05 13:46:17;;;;;;;4.93;4.43;;;19.60;99.90;;;;;;4991217;28;20555;-67
2022/05/05 13:49:06;;;;;;;6.27;4.27;;;19.70;99.90;;;;;;4986985;28;21094;-67
2022/05/05 13:51:56;;;;;;;3.90;3.60;;;19.80;99.90;;;;;;4990500;28;21076;-67
2022/05/05 13:54:58;;;;;;;5.30;4.80;;;19.70;99.90;;;;;;4995387;28;20468;-66
2022/05/05 13:57:46;;;;;;;5.23;4.73;;;19.80;99.90;;;;;;4995282;28;20456;-66
2022/05/05 14:00:35;;;;;;;6.30;4.90;;;19.70;99.90;;;;;;4996239;28;20465;-66
2022/05/05 14:03:23;;;;;;;5.50;5.00;;;19.60;99.90;;;;;;4996991;28;20527;-66
2022/05/05 14:06:11;;;;;;;4.50;4.10;;;19.60;99.90;;;;;;4995506;28;20603;-67
2022/05/05 14:12:15;;;;;;;7.07;5.70;;;19.40;99.90;;;;;;4993338;28;20484;-67
2022/05/05 14:15:04;;;;;;;6.03;5.53;;;19.30;99.90;;;;;;4998563;28;20540;-67
2022/05/05 14:17:52;;;;;;;4.50;4.10;;;19.40;99.90;;;;;;4999942;28;20542;-66
2022/05/05 14:20:40;;;;;;;5.03;4.57;;;19.50;99.90;;;;;;4997456;28;20469;-66
2022/05/05 14:23:28;;;;;;;5.60;4.70;;;19.60;99.90;;;;;;4993114;28;20560;-67
2022/05/05 14:26:18;;;;;;;5.27;4.77;;;19.70;99.90;;;;;;5000020;28;20492;-67
2022/05/05 14:29:06;;;;;;;5.43;5.03;;;19.80;99.90;;;;;;5001582;28;20526;-67
2022/05/05 14:31:55;;;;;;;6.07;5.57;;;19.70;99.90;;;;;;4991424;28;20701;-66
2022/05/05 14:34:43;;;;;;;5.40;4.97;;;20.00;99.90;;;;;;5001127;28;20978;-67
2022/05/05 14:37:32;;;;;;;5.77;5.27;;;20.30;99.90;;;;;;4997603;28;20445;-67
2022/05/05 14:40:20;;;;;;;6.03;5.53;;;20.80;99.90;;;;;;4996171;28;20558;-67
2022/05/05 14:43:09;;;;;;;6.77;6.17;;;21.00;99.90;;;;;;4997714;28;20841;-66
2022/05/05 14:45:57;;;;;;;6.70;5.70;;;20.70;99.90;;;;;;4993466;28;20464;-67
2022/05/05 14:48:46;;;;;;;8.00;7.20;;;20.60;99.90;;;;;;4998272;28;20563;-67
2022/05/05 14:51:34;;;;;;;6.20;5.70;;;20.60;99.90;;;;;;4999724;28;20484;-68
2022/05/05 14:54:22;;;;;;;6.90;6.30;;;20.70;99.90;;;;;;4998667;28;20449;-68
2022/05/05 14:57:12;;;;;;;7.43;6.80;;;20.80;99.90;;;;;;5000398;28;20484;-67
2022/05/05 15:00:01;;;;;;;7.70;7.00;;;21.00;99.90;;;;;;5000545;28;20573;-67
2022/05/05 15:02:50;;;;;;;8.10;7.40;;;20.70;99.90;;;;;;4991998;28;20505;-68
2022/05/05 15:05:38;;;;;;;7.80;6.17;;;20.60;99.90;;;;;;4995788;28;20532;-67
2022/05/05 15:08:28;;;;;;;8.10;7.40;;;20.60;99.90;;;;;;4998359;28;20465;-67
2022/05/05 15:11:17;;;;;;;7.90;7.20;;;20.50;99.90;;;;;;4996966;28;20995;-68
2022/05/05 15:14:05;;;;;;;8.07;7.37;;;20.30;99.90;;;;;;4997739;28;20476;-67
2022/05/05 15:16:54;;;;;;;9.53;7.20;;;20.20;99.90;;;;;;4992810;28;20484;-67
2022/05/05 15:19:43;;;;;;;7.83;7.13;;;20.00;99.90;;;;;;4997432;28;21129;-68
2022/05/05 15:22:31;;;;;;;7.93;7.23;;;20.00;99.90;;;;;;4987911;28;21175;-68
2022/05/05 15:25:20;;;;;;;8.00;7.30;;;20.20;99.90;;;;;;4992378;28;20461;-67
2022/05/05 15:28:09;;;;;;;8.03;7.10;;;20.20;99.90;;;;;;4988323;28;20586;-68
2022/05/05 15:30:57;;;;;;;8.83;7.90;;;20.30;99.90;;;;;;4993193;28;20534;-68
2022/05/05 15:33:46;;;;;;;9.40;7.60;;;20.30;99.90;;;;;;4996186;28;20470;-67
2022/05/05 15:36:34;;;;;;;7.10;6.50;;;20.20;99.90;;;;;;4990641;28;20457;-67
2022/05/05 15:39:22;;;;;;;6.57;6.00;;;20.20;99.90;;;;;;4998209;28;20485;-67
2022/05/05 15:42:11;;;;;;;7.60;6.70;;;20.10;99.90;;;;;;4994496;28;20472;-67